Time;durP1;ratioP1;P1;durP2;ratioP2;P2;SDS_P1;SDS_P2;PMS_P1;PMS_P2;Temp;Humidity;BMP_temperature;BMP_pressure;BME280_temperature;BME280_humidity;BME280_pressure;Samples;Min_cycle;Max_cycle;Signal;HPM_P1;HPM_P2
2023/09/25 00:00:24;;;;;;;4.10;2.00;;;;;;;13.17;82.74;101853.49;109008;277;38292;-71
2023/09/25 00:03:18;;;;;;;3.10;2.00;;;;;;;13.13;82.92;101853.27;108996;277;38481;-71
2023/09/25 00:05:53;;;;;;;2.70;1.90;;;;;;;13.11;82.94;101855.25;109032;277;39629;-71
2023/09/25 00:08:29;;;;;;;4.30;2.50;;;;;;;13.10;83.00;101859.81;108973;277;41304;-71
2023/09/25 00:11:05;;;;;;;3.20;2.30;;;;;;;13.04;82.81;101861.73;109039;276;38471;-71
2023/09/25 00:13:40;;;;;;;3.50;2.60;;;;;;;12.99;83.13;101869.02;109051;277;38601;-71
2023/09/25 00:16:17;;;;;;;3.10;2.10;;;;;;;12.98;83.34;101874.99;109023;277;39399;-71
2023/09/25 00:18:57;;;;;;;3.70;1.90;;;;;;;12.97;83.23;101875.91;108992;277;38334;-72
2023/09/25 00:21:34;;;;;;;3.00;2.30;;;;;;;12.97;83.44;101883.43;108997;277;38269;-70
2023/09/25 00:24:13;;;;;;;5.00;2.10;;;;;;;12.99;83.76;101882.67;109004;277;39400;-70
2023/09/25 00:26:47;;;;;;;3.20;2.30;;;;;;;12.98;83.67;101879.21;108984;277;38185;-70
2023/09/25 00:29:26;;;;;;;2.50;2.00;;;;;;;12.95;83.63;101878.77;109039;276;38164;-70
2023/09/25 00:32:01;;;;;;;4.30;3.10;;;;;;;12.91;83.77;101878.67;108995;277;38237;-70
2023/09/25 00:34:37;;;;;;;4.20;2.40;;;;;;;12.87;83.89;101875.45;108989;277;38431;-70
2023/09/25 00:37:13;;;;;;;3.20;2.30;;;;;;;12.88;84.02;101871.57;108988;277;38486;-71
2023/09/25 00:39:49;;;;;;;4.50;2.30;;;;;;;12.90;84.34;101869.57;108988;277;38901;-71
2023/09/25 00:42:31;;;;;;;3.20;2.50;;;;;;;12.94;84.40;101872.30;108940;277;39924;-71
2023/09/25 00:45:06;;;;;;;;;;;;;;;12.94;84.60;101878.08;109035;277;38253;-71
2023/09/25 00:47:41;;;;;;;2.60;2.00;;;;;;;12.88;84.54;101878.40;108968;277;38720;-71
2023/09/25 00:50:16;;;;;;;2.90;1.90;;;;;;;12.89;84.59;101877.83;109087;277;39638;-71
2023/09/25 00:52:53;;;;;;;3.50;2.20;;;;;;;12.92;84.79;101876.73;109019;277;38476;-71
2023/09/25 00:55:27;;;;;;;3.40;1.90;;;;;;;12.94;84.85;101876.52;109103;277;38714;-70
2023/09/25 00:58:01;;;;;;;3.30;2.40;;;;;;;12.92;84.96;101869.20;109049;277;38607;-70
2023/09/25 01:00:36;;;;;;;3.10;2.10;;;;;;;12.91;84.96;101869.02;109042;277;38722;-70
2023/09/25 01:03:11;;;;;;;4.10;2.10;;;;;;;12.90;84.77;101870.45;109020;277;40087;-70
2023/09/25 01:05:45;;;;;;;3.20;1.80;;;;;;;12.90;84.84;101870.12;109018;277;38481;-70
2023/09/25 01:08:19;;;;;;;2.70;2.10;;;;;;;12.89;84.86;101868.38;108959;276;38040;-71
2023/09/25 01:10:53;;;;;;;4.50;2.50;;;;;;;12.87;84.89;101866.67;108975;276;39264;-71
2023/09/25 01:13:28;;;;;;;3.80;2.20;;;;;;;12.84;85.10;101870.77;108908;277;38565;-72
2023/09/25 01:16:04;;;;;;;3.40;2.20;;;;;;;12.82;85.23;101872.21;108916;277;38517;-71
2023/09/25 01:18:38;;;;;;;3.50;1.90;;;;;;;12.81;85.18;101869.27;108951;277;41797;-71
2023/09/25 01:21:13;;;;;;;2.40;1.90;;;;;;;12.79;85.27;101870.36;109000;277;38560;-70
2023/09/25 01:23:50;;;;;;;2.60;1.90;;;;;;;12.79;85.31;101871.23;108946;277;38351;-70
2023/09/25 01:26:29;;;;;;;3.80;2.00;;;;;;;12.80;85.53;101874.36;109034;277;38319;-70
2023/09/25 01:29:06;;;;;;;;;;;;;;;12.80;85.67;101877.00;108989;277;38479;-70
2023/09/25 01:31:40;;;;;;;3.40;1.80;;;;;;;12.76;85.75;101879.89;109001;277;39857;-71
2023/09/25 01:34:17;;;;;;;3.10;1.80;;;;;;;12.79;85.96;101879.28;108890;277;175301;-70
2023/09/25 01:36:52;;;;;;;3.80;2.20;;;;;;;12.79;85.90;101878.27;109007;270;38305;-71
2023/09/25 01:39:29;;;;;;;5.20;1.90;;;;;;;12.79;85.81;101874.39;109037;276;39123;-70
2023/09/25 01:42:03;;;;;;;4.20;2.70;;;;;;;12.80;85.97;101877.00;108979;277;38246;-72
2023/09/25 01:44:41;;;;;;;3.00;2.10;;;;;;;12.79;86.03;101877.19;108985;277;39368;-70
2023/09/25 01:47:23;;;;;;;3.80;2.00;;;;;;;12.79;86.03;101875.42;109037;276;38271;-71
2023/09/25 01:49:59;;;;;;;3.30;2.20;;;;;;;12.83;86.18;101874.65;108984;277;38597;-70
2023/09/25 01:52:33;;;;;;;3.60;2.30;;;;;;;12.84;86.19;101879.36;109029;276;38355;-69
2023/09/25 01:55:11;;;;;;;3.10;2.30;;;;;;;12.83;86.28;101880.25;109024;277;38182;-70
2023/09/25 01:57:45;;;;;;;5.90;2.40;;;;;;;12.86;86.30;101879.15;109013;276;38470;-72
2023/09/25 02:00:21;;;;;;;3.40;2.10;;;;;;;12.89;86.26;101879.77;109016;277;39682;-69
2023/09/25 02:02:57;;;;;;;3.40;2.30;;;;;;;12.89;86.35;101880.83;108994;277;39483;-70
2023/09/25 02:05:32;;;;;;;3.40;2.50;;;;;;;12.85;86.14;101875.13;108987;276;39650;-70
2023/09/25 02:08:11;;;;;;;4.30;2.50;;;;;;;12.84;86.44;101873.75;109006;277;38640;-70
2023/09/25 02:10:50;;;;;;;3.00;2.10;;;;;;;12.84;86.39;101875.48;108977;277;38246;-72
2023/09/25 02:13:28;;;;;;;4.10;2.30;;;;;;;12.83;86.28;101874.30;109001;276;38534;-71
2023/09/25 02:16:04;;;;;;;3.40;2.40;;;;;;;12.82;86.38;101869.95;109019;277;39402;-70
2023/09/25 02:18:39;;;;;;;3.40;2.30;;;;;;;12.79;86.29;101868.27;108944;277;38475;-70
2023/09/25 02:21:13;;;;;;;5.20;2.70;;;;;;;12.78;86.44;101869.85;109001;276;39298;-70
2023/09/25 02:23:47;;;;;;;4.60;2.20;;;;;;;12.79;86.36;101876.85;108918;277;38427;-72
2023/09/25 02:26:25;;;;;;;5.70;2.50;;;;;;;12.77;86.31;101878.81;109072;276;39634;-73
2023/09/25 02:28:59;;;;;;;4.40;2.40;;;;;;;12.77;86.27;101882.31;108900;276;174884;-71
2023/09/25 02:31:36;;;;;;;3.30;2.30;;;;;;;12.74;86.21;101886.26;109030;277;39787;-72
2023/09/25 02:34:14;;;;;;;4.10;2.20;;;;;;;12.67;86.29;101884.64;109049;276;38411;-70
2023/09/25 02:36:48;;;;;;;2.60;1.80;;;;;;;12.65;86.43;101882.77;108958;277;39535;-70
2023/09/25 02:39:23;;;;;;;3.90;2.10;;;;;;;12.61;86.38;101876.91;109029;276;39192;-70
2023/09/25 02:41:58;;;;;;;3.60;2.00;;;;;;;12.59;86.43;101880.10;108891;277;175235;-71
2023/09/25 02:44:31;;;;;;;3.90;2.10;;;;;;;12.55;86.64;101874.23;108955;276;39466;-70
2023/09/25 02:47:06;;;;;;;3.20;2.10;;;;;;;12.52;86.62;101871.86;109001;276;38165;-72
2023/09/25 02:49:44;;;;;;;3.70;2.10;;;;;;;12.49;86.73;101870.17;108983;277;38774;-69
2023/09/25 02:52:19;;;;;;;4.80;2.20;;;;;;;12.45;87.00;101877.27;109020;277;38286;-70
2023/09/25 02:54:54;;;;;;;2.80;2.10;;;;;;;12.43;86.99;101874.15;109024;277;38520;-71
2023/09/25 02:57:27;;;;;;;4.80;2.50;;;;;;;12.39;87.25;101872.84;108369;277;769902;-71
2023/09/25 03:00:02;;;;;;;5.00;2.70;;;;;;;12.35;87.39;101872.05;109075;277;38788;-70
2023/09/25 03:02:37;;;;;;;2.90;1.90;;;;;;;12.35;87.62;101870.30;109028;277;38214;-70
2023/09/25 03:05:17;;;;;;;3.50;2.20;;;;;;;12.36;87.63;101863.97;109040;277;39692;-71
2023/09/25 03:07:55;;;;;;;4.20;2.70;;;;;;;12.38;87.81;101857.48;108964;277;38100;-71
2023/09/25 03:10:32;;;;;;;4.20;2.70;;;;;;;12.38;87.90;101858.85;109040;277;39868;-70
2023/09/25 03:13:06;;;;;;;3.70;2.10;;;;;;;12.36;87.92;101863.11;109019;277;39672;-70
2023/09/25 03:15:41;;;;;;;3.60;2.20;;;;;;;12.35;87.84;101861.73;109019;277;38472;-71
2023/09/25 03:18:20;;;;;;;4.90;2.50;;;;;;;12.34;87.97;101862.27;108964;277;38597;-71
2023/09/25 03:20:56;;;;;;;4.40;2.30;;;;;;;12.34;88.18;101865.42;108946;277;38907;-71
2023/09/25 03:23:31;;;;;;;4.40;2.00;;;;;;;12.34;88.50;101868.41;108943;276;39405;-70
2023/09/25 03:26:16;;;;;;;3.40;2.20;;;;;;;12.34;88.59;101870.30;108996;277;38191;-71
2023/09/25 03:28:51;;;;;;;2.60;2.00;;;;;;;12.35;88.59;101870.65;108861;277;189094;-70
2023/09/25 03:31:27;;;;;;;2.50;2.00;;;;;;;12.34;88.75;101870.15;109007;277;38474;-71
2023/09/25 03:34:01;;;;;;;5.60;2.10;;;;;;;12.32;88.69;101876.67;108987;277;38494;-71
2023/09/25 03:36:38;;;;;;;6.10;4.60;;;;;;;12.33;88.79;101879.97;108971;277;40634;-71
2023/09/25 03:39:12;;;;;;;17.00;15.40;;;;;;;12.32;88.68;101882.25;108888;277;174901;-72
2023/09/25 03:41:49;;;;;;;16.80;15.10;;;;;;;12.32;88.81;101881.92;108950;277;38275;-72
2023/09/25 03:44:26;;;;;;;9.80;8.90;;;;;;;12.31;88.82;101887.35;109082;277;38272;-73
2023/09/25 03:47:00;;;;;;;11.00;9.90;;;;;;;12.30;88.80;101890.70;108987;277;38178;-74
2023/09/25 03:49:36;;;;;;;10.50;9.40;;;;;;;12.30;88.86;101896.83;109017;277;38169;-71
2023/09/25 03:52:14;;;;;;;6.30;4.70;;;;;;;12.27;88.58;101897.95;109013;277;38568;-71
2023/09/25 03:54:50;;;;;;;4.00;3.10;;;;;;;12.26;89.01;101896.58;109003;273;38286;-70
2023/09/25 03:57:26;;;;;;;4.40;3.10;;;;;;;12.25;88.86;101898.15;109015;277;39402;-70
2023/09/25 04:00:00;;;;;;;4.50;3.40;;;;;;;12.24;88.85;101902.89;109019;277;38622;-70
2023/09/25 04:02:34;;;;;;;5.40;2.70;;;;;;;12.24;88.71;101903.41;108965;277;38482;-70
2023/09/25 04:05:13;;;;;;;6.20;3.40;;;;;;;12.23;89.01;101904.16;108962;277;39392;-71
2023/09/25 04:07:49;;;;;;;3.80;3.20;;;;;;;12.23;89.05;101904.67;108948;273;38334;-70
2023/09/25 04:10:23;;;;;;;3.20;2.60;;;;;;;12.24;89.04;101909.04;108940;277;38614;-72
2023/09/25 04:12:58;;;;;;;4.60;2.50;;;;;;;12.23;88.96;101914.65;108967;277;38617;-71
2023/09/25 04:15:32;;;;;;;4.10;2.50;;;;;;;12.22;89.09;101920.95;109041;277;38153;-70
2023/09/25 04:18:13;;;;;;;4.00;2.30;;;;;;;12.21;89.30;101925.36;109028;277;39913;-70
2023/09/25 04:20:49;;;;;;;3.30;2.10;;;;;;;12.19;89.23;101926.79;108383;277;897274;-71
2023/09/25 04:23:23;;;;;;;5.70;2.40;;;;;;;12.17;89.29;101920.38;109062;277;38565;-72
2023/09/25 04:26:00;;;;;;;4.20;2.80;;;;;;;12.16;89.35;101923.01;109044;277;39417;-71
2023/09/25 04:28:34;;;;;;;8.00;4.20;;;;;;;12.13;89.69;101922.02;108985;277;38091;-71
2023/09/25 04:31:12;;;;;;;5.90;3.00;;;;;;;12.14;89.83;101925.50;108991;277;39370;-70
2023/09/25 04:33:46;;;;;;;4.10;2.50;;;;;;;12.15;90.02;101918.66;108980;277;39721;-69
2023/09/25 04:36:26;;;;;;;4.60;2.20;;;;;;;12.11;89.76;101920.48;109017;277;38677;-70
2023/09/25 04:39:10;;;;;;;5.70;2.10;;;;;;;12.12;89.78;101921.17;109050;277;39013;-71
2023/09/25 04:41:46;;;;;;;4.20;2.40;;;;;;;12.13;89.82;101922.36;108975;277;38134;-72
2023/09/25 04:44:20;;;;;;;4.70;2.40;;;;;;;12.15;89.84;101919.53;109013;277;38213;-72
2023/09/25 04:46:58;;;;;;;9.20;2.90;;;;;;;12.16;89.73;101920.90;108977;277;38622;-71
2023/09/25 04:49:33;;;;;;;4.30;2.20;;;;;;;12.17;89.88;101928.41;109005;277;39062;-70
2023/09/25 04:52:10;;;;;;;2.80;2.30;;;;;;;12.20;89.98;101930.29;108907;277;38290;-72
2023/09/25 04:54:53;;;;;;;8.40;2.70;;;;;;;12.23;90.16;101931.27;108989;277;38330;-71
2023/09/25 04:57:27;;;;;;;3.20;2.30;;;;;;;12.21;89.77;101932.00;108984;277;39180;-70
2023/09/25 05:00:12;;;;;;;5.40;2.60;;;;;;;12.19;89.88;101933.30;108999;276;39061;-70
2023/09/25 05:02:48;;;;;;;4.20;2.40;;;;;;;12.18;90.05;101933.47;109001;277;38879;-70
2023/09/25 05:05:22;;;;;;;4.50;2.30;;;;;;;12.21;90.16;101934.27;109066;277;38351;-73
2023/09/25 05:07:59;;;;;;;5.30;2.40;;;;;;;12.26;90.37;101938.90;108932;277;174867;-72
2023/09/25 05:10:36;;;;;;;5.20;2.80;;;;;;;12.29;90.27;101938.66;108994;276;39453;-73
2023/09/25 05:13:10;;;;;;;6.40;2.70;;;;;;;12.34;90.30;101937.70;109071;277;39329;-70
2023/09/25 05:15:45;;;;;;;5.80;2.10;;;;;;;12.37;90.01;101937.47;108994;277;38313;-70
2023/09/25 05:18:22;;;;;;;4.90;2.30;;;;;;;12.42;90.26;101931.40;109045;277;38301;-71
2023/09/25 05:21:02;;;;;;;4.20;2.80;;;;;;;12.48;90.35;101925.69;108998;276;38776;-70
2023/09/25 05:23:37;;;;;;;6.90;2.80;;;;;;;12.52;90.27;101924.40;109028;277;38230;-70
2023/09/25 05:26:14;;;;;;;4.40;2.40;;;;;;;12.57;90.29;101916.58;108971;277;39370;-71
2023/09/25 05:28:50;;;;;;;5.80;2.60;;;;;;;12.61;90.26;101913.32;108993;276;38332;-70
2023/09/25 05:31:24;;;;;;;3.10;2.20;;;;;;;12.66;90.29;101917.77;109013;276;38840;-70
2023/09/25 05:34:02;;;;;;;4.00;2.60;;;;;;;12.72;90.29;101922.71;108990;276;39383;-70
2023/09/25 05:36:39;;;;;;;3.20;2.80;;;;;;;12.79;90.38;101920.10;108977;277;39695;-70
2023/09/25 05:39:17;;;;;;;5.90;2.70;;;;;;;12.92;90.74;101925.77;108982;277;38029;-71
2023/09/25 05:41:51;;;;;;;6.10;2.50;;;;;;;13.37;92.46;101923.65;109005;277;39123;-73
2023/09/25 05:44:27;;;;;;;3.40;2.70;;;;;;;14.16;92.84;101918.42;109013;277;38143;-72
2023/09/25 05:47:01;;;;;;;4.90;2.60;;;;;;;15.02;91.49;101912.00;109023;276;38155;-71
2023/09/25 05:49:35;;;;;;;7.20;2.90;;;;;;;15.69;88.93;101916.48;108989;277;38747;-73
2023/09/25 05:52:11;;;;;;;5.90;3.00;;;;;;;15.81;85.70;101909.89;109035;277;38397;-71
2023/09/25 05:54:52;;;;;;;4.30;2.50;;;;;;;15.77;84.53;101906.36;109024;276;39043;-71
2023/09/25 05:57:26;;;;;;;6.00;2.90;;;;;;;15.70;83.10;101910.30;109076;276;38232;-71
2023/09/25 06:00:10;;;;;;;4.00;2.10;;;;;;;15.66;82.39;101912.54;109038;276;38867;-70
2023/09/25 06:02:52;;;;;;;3.40;2.30;;;;;;;15.73;82.14;101918.27;109043;276;40099;-71
2023/09/25 06:05:30;;;;;;;4.90;2.70;;;;;;;15.86;81.97;101916.06;109045;277;39525;-70
2023/09/25 06:08:05;;;;;;;4.80;2.50;;;;;;;15.85;80.73;101914.70;109010;277;38346;-71
2023/09/25 06:10:41;;;;;;;3.80;2.10;;;;;;;15.75;80.22;101917.52;109046;276;38521;-70
2023/09/25 06:13:15;;;;;;;5.70;2.30;;;;;;;15.65;79.74;101918.56;108952;276;37949;-70
2023/09/25 06:15:52;;;;;;;5.80;2.70;;;;;;;15.56;79.24;101914.27;108983;276;38426;-73
2023/09/25 06:18:26;;;;;;;3.50;1.80;;;;;;;15.43;78.80;101913.09;108925;276;38673;-72
2023/09/25 06:21:01;;;;;;;5.10;1.90;;;;;;;15.33;78.71;101915.74;108959;277;39605;-70
2023/09/25 06:23:35;;;;;;;5.50;2.30;;;;;;;15.27;79.40;101915.94;108930;277;38424;-72
2023/09/25 06:26:12;;;;;;;4.50;1.90;;;;;;;15.24;79.63;101914.27;108982;277;41326;-71
2023/09/25 06:28:48;;;;;;;3.60;1.90;;;;;;;15.20;79.53;101916.50;108935;276;38221;-71
2023/09/25 06:31:23;;;;;;;2.90;1.60;;;;;;;15.18;79.09;101917.98;109019;277;39718;-71
2023/09/25 06:33:58;;;;;;;3.30;1.60;;;;;;;15.14;79.20;101916.02;109031;277;38224;-71
2023/09/25 06:36:33;;;;;;;5.60;1.90;;;;;;;15.14;79.62;101914.42;109011;276;39755;-71
2023/09/25 06:39:11;;;;;;;5.80;1.90;;;;;;;15.16;79.64;101917.17;109040;277;38509;-71
2023/09/25 06:41:45;;;;;;;4.70;2.00;;;;;;;15.21;79.81;101916.82;109041;276;38331;-70
2023/09/25 06:44:21;;;;;;;4.70;1.90;;;;;;;15.29;79.78;101920.80;109056;277;38169;-72
2023/09/25 06:46:55;;;;;;;4.10;1.80;;;;;;;15.38;79.94;101922.08;109023;276;38948;-71
2023/09/25 06:49:35;;;;;;;4.30;2.00;;;;;;;15.45;79.83;101919.56;109019;277;39670;-71
2023/09/25 06:52:16;;;;;;;4.90;1.70;;;;;;;15.54;79.83;101925.77;108998;276;39327;-69
2023/09/25 06:54:52;;;;;;;4.70;1.90;;;;;;;15.65;79.77;101927.52;108968;277;38157;-71
2023/09/25 06:57:30;;;;;;;4.90;1.80;;;;;;;15.78;79.18;101928.47;108976;277;38230;-71
2023/09/25 07:00:10;;;;;;;3.60;1.90;;;;;;;15.88;78.70;101927.95;108919;277;38163;-71
2023/09/25 07:02:46;;;;;;;5.20;2.00;;;;;;;15.98;78.15;101927.95;109023;277;38771;-71
2023/09/25 07:05:21;;;;;;;3.50;1.60;;;;;;;16.10;77.94;101921.56;108984;277;38408;-71
2023/09/25 07:07:57;;;;;;;3.90;1.80;;;;;;;16.20;77.64;101928.05;108988;277;38764;-72
2023/09/25 07:10:36;;;;;;;3.50;1.70;;;;;;;16.27;77.08;101930.98;109021;277;39464;-70
2023/09/25 07:13:13;;;;;;;3.30;1.50;;;;;;;16.32;76.82;101937.45;108986;277;38552;-71
2023/09/25 07:15:49;;;;;;;5.50;1.80;;;;;;;16.46;77.34;101937.30;109029;277;39755;-71
2023/09/25 07:18:25;;;;;;;2.40;1.20;;;;;;;16.63;76.84;101943.70;108969;277;40134;-73
2023/09/25 07:21:00;;;;;;;3.10;1.70;;;;;;;16.72;76.26;101944.41;108968;277;38873;-71
2023/09/25 07:23:36;;;;;;;4.30;1.70;;;;;;;16.84;76.09;101941.49;108988;277;39438;-73
2023/09/25 07:26:13;;;;;;;5.10;1.40;;;;;;;16.95;75.90;101944.05;109010;276;38331;-72
2023/09/25 07:28:51;;;;;;;4.20;1.50;;;;;;;17.07;75.87;101947.48;108973;277;38263;-71
2023/09/25 07:31:27;;;;;;;3.40;1.40;;;;;;;17.18;75.04;101948.61;109013;277;39606;-72
2023/09/25 07:34:08;;;;;;;5.10;1.80;;;;;;;17.20;74.59;101955.58;108902;277;176723;-72
2023/09/25 07:36:47;;;;;;;3.70;1.40;;;;;;;17.16;73.55;101954.33;109022;277;40192;-73
2023/09/25 07:39:23;;;;;;;4.20;1.70;;;;;;;17.13;73.62;101952.86;108990;277;39612;-73
2023/09/25 07:41:57;;;;;;;3.40;1.40;;;;;;;17.15;73.21;101957.40;108953;277;38177;-72
2023/09/25 07:44:33;;;;;;;2.90;1.40;;;;;;;17.25;73.69;101955.73;108992;277;38135;-72
2023/09/25 07:47:10;;;;;;;6.50;1.90;;;;;;;17.43;73.97;101952.53;108926;277;39400;-72
2023/09/25 07:49:45;;;;;;;11.00;2.50;;;;;;;17.59;73.34;101948.70;108977;277;38169;-74
2023/09/25 07:52:25;;;;;;;13.60;2.70;;;;;;;17.79;73.62;101947.67;108944;277;38360;-73
2023/09/25 07:55:00;;;;;;;8.50;2.30;;;;;;;18.18;72.76;101949.33;108997;277;39399;-73
2023/09/25 07:57:35;;;;;;;4.70;1.40;;;;;;;18.61;72.27;101944.16;108920;277;39677;-72
2023/09/25 08:00:21;;;;;;;4.40;1.40;;;;;;;19.21;69.66;101938.88;109001;277;38897;-74
2023/09/25 08:02:55;;;;;;;4.40;1.50;;;;;;;19.94;68.40;101936.95;108993;277;38327;-73
2023/09/25 08:05:35;;;;;;;3.00;1.30;;;;;;;20.78;67.45;101938.63;108990;277;38693;-73
2023/09/25 08:08:15;;;;;;;4.70;1.30;;;;;;;21.70;64.96;101938.13;108881;277;174537;-73
2023/09/25 08:10:52;;;;;;;2.60;1.30;;;;;;;22.54;63.00;101933.30;109049;276;38308;-75
2023/09/25 08:13:33;;;;;;;4.30;1.40;;;;;;;23.33;59.75;101932.30;109028;277;38443;-73
2023/09/25 08:16:16;;;;;;;6.30;1.30;;;;;;;23.85;56.28;101932.49;109007;277;38593;-73
2023/09/25 08:18:54;;;;;;;3.80;1.50;;;;;;;24.17;55.79;101926.89;109051;277;38494;-72
2023/09/25 08:21:28;;;;;;;5.60;1.80;;;;;;;24.40;52.91;101925.78;108991;277;39342;-74
2023/09/25 08:24:08;;;;;;;5.30;1.80;;;;;;;24.40;53.66;101927.02;108986;276;38619;-73
2023/09/25 08:26:46;;;;;;;2.70;1.20;;;;;;;24.36;52.81;101921.98;109042;277;38249;-73
2023/09/25 08:29:20;;;;;;;2.70;1.40;;;;;;;24.22;52.23;101922.58;108958;277;38701;-73
2023/09/25 08:31:55;;;;;;;3.40;1.30;;;;;;;23.93;50.95;101927.13;108972;277;38210;-73
2023/09/25 08:34:31;;;;;;;6.40;1.50;;;;;;;23.71;51.61;101922.42;109012;277;38410;-74
2023/09/25 08:37:06;;;;;;;9.90;1.80;;;;;;;23.70;51.96;101922.85;108974;276;39380;-73
2023/09/25 08:39:44;;;;;;;6.60;1.60;;;;;;;23.65;51.61;101918.57;108990;277;39580;-74
2023/09/25 08:42:18;;;;;;;6.80;1.50;;;;;;;23.47;52.04;101910.65;108975;277;38536;-74
2023/09/25 08:44:53;;;;;;;2.40;1.10;;;;;;;23.44;52.40;101906.82;109059;276;39302;-75
2023/09/25 08:47:34;;;;;;;5.80;1.90;;;;;;;23.52;52.40;101906.24;108954;277;38293;-73
2023/09/25 08:50:11;;;;;;;5.40;1.90;;;;;;;23.51;51.93;101910.42;109022;277;38784;-73
2023/09/25 08:52:47;;;;;;;5.20;1.30;;;;;;;23.47;52.89;101913.15;109041;277;38796;-74
2023/09/25 08:55:26;;;;;;;3.00;2.10;;;;;;;23.40;51.83;101908.70;109062;277;38262;-73
2023/09/25 08:58:04;;;;;;;3.00;1.50;;;;;;;23.19;52.14;101907.37;109007;277;39615;-74
2023/09/25 09:00:38;;;;;;;4.80;1.70;;;;;;;23.03;52.34;101898.67;108999;276;38203;-74
2023/09/25 09:03:19;;;;;;;3.50;1.30;;;;;;;22.88;53.19;101896.47;109065;277;39110;-74
2023/09/25 09:05:54;;;;;;;5.20;1.80;;;;;;;22.67;53.16;101892.12;109012;277;38463;-73
2023/09/25 09:08:30;;;;;;;4.00;1.40;;;;;;;22.47;53.47;101892.68;108980;277;39724;-75
2023/09/25 09:11:13;;;;;;;9.10;1.50;;;;;;;22.30;54.33;101888.77;109042;276;39439;-75
2023/09/25 09:13:54;;;;;;;2.30;1.20;;;;;;;22.30;54.97;101887.22;109039;276;39212;-75
2023/09/25 09:16:28;;;;;;;5.90;1.20;;;;;;;22.44;54.90;101885.77;109045;276;38294;-75
2023/09/25 09:19:13;;;;;;;2.00;1.00;;;;;;;22.66;55.26;101880.08;109014;277;38376;-75
2023/09/25 09:21:48;;;;;;;4.90;1.10;;;;;;;22.98;55.68;101884.79;109022;277;38595;-74
2023/09/25 09:24:32;;;;;;;2.30;1.20;;;;;;;23.44;52.30;101880.58;109100;276;38143;-75
2023/09/25 09:27:07;;;;;;;1.50;0.80;;;;;;;24.02;51.51;101878.17;109091;276;39519;-75
2023/09/25 09:29:43;;;;;;;2.30;1.20;;;;;;;24.65;50.05;101875.12;109100;277;38745;-74
2023/09/25 09:32:25;;;;;;;1.60;1.00;;;;;;;25.24;48.36;101870.73;109006;277;174429;-73
2023/09/25 09:35:00;;;;;;;2.10;0.90;;;;;;;25.78;48.23;101871.41;109039;277;38238;-75
2023/09/25 09:37:42;;;;;;;2.10;0.90;;;;;;;26.26;45.41;101873.13;109050;276;38193;-75
2023/09/25 09:40:17;;;;;;;3.20;1.20;;;;;;;26.64;46.03;101872.90;108972;277;39190;-75
2023/09/25 09:42:55;;;;;;;3.50;1.00;;;;;;;26.95;43.47;101868.86;109022;277;38265;-75
2023/09/25 09:45:30;;;;;;;2.30;0.60;;;;;;;26.95;43.47;101872.11;109035;276;38807;-75
2023/09/25 09:48:05;;;;;;;1.50;1.00;;;;;;;26.79;41.91;101867.87;108978;276;38184;-74
2023/09/25 09:50:39;;;;;;;4.30;1.70;;;;;;;26.46;42.57;101866.10;109002;277;39518;-73
2023/09/25 09:53:14;;;;;;;2.20;1.00;;;;;;;26.07;42.38;101870.83;109004;274;38308;-73
2023/09/25 09:55:48;;;;;;;1.80;1.00;;;;;;;25.64;43.07;101868.35;109080;277;38183;-75
2023/09/25 09:58:23;;;;;;;1.40;1.20;;;;;;;25.35;43.75;101861.43;109027;277;38215;-75
2023/09/25 10:00:58;;;;;;;2.20;1.00;;;;;;;25.10;44.16;101865.17;108991;277;38540;-72
2023/09/25 10:03:32;;;;;;;2.50;1.30;;;;;;;24.84;44.45;101864.63;109032;276;38792;-73
2023/09/25 10:06:09;;;;;;;1.80;1.10;;;;;;;24.59;44.69;101866.83;109042;276;39498;-74
2023/09/25 10:08:44;;;;;;;3.80;1.20;;;;;;;24.39;44.81;101865.40;108967;277;38257;-75
2023/09/25 10:11:27;;;;;;;4.50;1.30;;;;;;;24.06;44.77;101870.41;108973;277;38607;-74
2023/09/25 10:14:13;;;;;;;3.20;1.20;;;;;;;23.77;45.60;101865.19;109016;276;39009;-74
2023/09/25 10:17:12;;;;;;;1.50;1.00;;;;;;;23.56;45.97;101865.50;109037;277;38226;-74
2023/09/25 10:19:57;;;;;;;3.60;1.10;;;;;;;23.30;46.19;101856.25;108935;277;38170;-75
2023/09/25 10:22:33;;;;;;;3.80;1.20;;;;;;;23.14;46.91;101854.66;108999;276;39104;-75
2023/09/25 10:25:12;;;;;;;3.10;1.30;;;;;;;23.07;47.34;101858.17;109051;277;38172;-72
2023/09/25 10:27:48;;;;;;;2.90;1.30;;;;;;;23.03;46.84;101855.20;109003;276;39606;-72
2023/09/25 10:30:25;;;;;;;2.50;1.50;;;;;;;23.00;47.54;101852.25;109061;276;38897;-75
2023/09/25 10:33:00;;;;;;;3.20;1.30;;;;;;;23.02;47.69;101850.20;109026;277;38153;-73
2023/09/25 10:35:48;;;;;;;4.00;1.30;;;;;;;23.04;47.36;101852.52;109004;277;38263;-72
2023/09/25 10:38:26;;;;;;;4.60;1.90;;;;;;;22.97;47.59;101849.06;108975;276;39624;-72
2023/09/25 10:41:04;;;;;;;2.00;1.00;;;;;;;22.96;47.61;101846.45;108953;277;38747;-74
2023/09/25 10:43:40;;;;;;;1.80;1.30;;;;;;;22.93;47.25;101849.14;108945;276;38797;-74
2023/09/25 10:46:18;;;;;;;3.10;1.20;;;;;;;22.91;47.19;101848.73;109048;277;38318;-73
2023/09/25 10:48:54;;;;;;;1.90;1.10;;;;;;;22.88;47.34;101841.78;109021;277;39625;-71
2023/09/25 10:51:31;;;;;;;2.50;1.20;;;;;;;22.92;47.57;101836.41;109032;277;38654;-73
2023/09/25 10:54:14;;;;;;;2.10;1.30;;;;;;;22.91;47.12;101837.90;108982;276;38188;-72
2023/09/25 10:56:53;;;;;;;2.50;1.30;;;;;;;22.87;47.39;101836.54;108365;277;778764;-72
2023/09/25 10:59:30;;;;;;;4.30;1.40;;;;;;;22.82;46.83;101835.83;109070;277;38152;-74
2023/09/25 11:02:09;;;;;;;2.00;1.10;;;;;;;22.74;47.12;101837.92;108983;277;38604;-73
2023/09/25 11:04:43;;;;;;;1.80;1.30;;;;;;;22.71;46.96;101836.36;109012;276;38218;-74
2023/09/25 11:07:21;;;;;;;1.70;1.10;;;;;;;22.66;47.21;101832.02;108993;277;38290;-71
2023/09/25 11:09:58;;;;;;;1.70;1.00;;;;;;;22.60;46.99;101830.30;108979;277;38591;-74
2023/09/25 11:12:37;;;;;;;2.20;1.30;;;;;;;22.51;47.22;101821.52;108931;277;38288;-74
2023/09/25 11:15:27;;;;;;;2.20;1.40;;;;;;;22.46;47.55;101822.31;109011;277;39239;-75
2023/09/25 11:18:28;;;;;;;2.60;1.60;;;;;;;22.40;47.06;101823.05;108889;277;38456;-76
2023/09/25 11:21:16;;;;;;;2.40;1.70;;;;;;;22.29;47.74;101817.36;109009;277;38486;-72
2023/09/25 11:23:50;;;;;;;2.30;1.30;;;;;;;22.22;47.69;101813.37;108998;277;38706;-71
2023/09/25 11:26:31;;;;;;;3.50;1.10;;;;;;;22.16;47.70;101812.86;109082;277;38249;-74
2023/09/25 11:29:11;;;;;;;1.50;1.10;;;;;;;22.11;48.04;101809.63;108345;276;887364;-74
2023/09/25 11:31:49;;;;;;;2.00;1.10;;;;;;;22.09;47.92;101809.06;109017;277;38114;-73
2023/09/25 11:34:24;;;;;;;2.30;1.10;;;;;;;22.03;47.65;101812.23;108962;277;39507;-73
2023/09/25 11:36:58;;;;;;;5.20;1.40;;;;;;;21.98;47.90;101807.79;108951;277;39806;-72
2023/09/25 11:39:38;;;;;;;3.20;1.60;;;;;;;21.95;48.20;101813.13;109102;277;38223;-72
2023/09/25 11:42:14;;;;;;;2.40;1.10;;;;;;;21.89;48.23;101811.01;108938;276;38175;-74
2023/09/25 11:44:48;;;;;;;2.60;1.20;;;;;;;21.88;48.57;101810.91;108993;277;38323;-73
2023/09/25 11:47:22;;;;;;;2.10;1.00;;;;;;;21.88;48.57;101810.14;108952;277;38680;-73
2023/09/25 11:49:58;;;;;;;2.30;1.10;;;;;;;21.89;48.23;101806.91;108996;277;39061;-75
2023/09/25 11:52:33;;;;;;;2.10;1.20;;;;;;;21.87;48.21;101804.02;109022;277;38171;-74
2023/09/25 11:55:11;;;;;;;1.80;1.10;;;;;;;21.85;48.24;101797.59;109071;277;38727;-73
2023/09/25 11:57:45;;;;;;;1.90;1.00;;;;;;;21.82;48.65;101796.48;109054;277;38193;-74
2023/09/25 12:00:19;;;;;;;2.80;1.40;;;;;;;21.78;48.70;101796.60;109004;277;38419;-72
2023/09/25 12:02:57;;;;;;;2.60;1.40;;;;;;;21.74;48.64;101793.30;108967;277;38238;-72
2023/09/25 12:05:34;;;;;;;2.80;1.40;;;;;;;21.72;49.06;101789.00;109013;277;38344;-75
2023/09/25 12:08:12;;;;;;;4.00;1.10;;;;;;;21.71;48.64;101787.65;108991;277;38180;-73